createdAt,value
2022-12-13T00:02:01.831Z,-1.30
2022-12-13T00:07:05.066Z,-1.40
2022-12-13T00:12:08.438Z,-1.50
2022-12-13T00:17:12.731Z,-1.50
2022-12-13T00:22:16.801Z,-1.60
2022-12-13T00:27:19.735Z,-1.60
2022-12-13T00:32:24.749Z,-1.70
2022-12-13T00:37:27.713Z,-1.70
2022-12-13T00:42:30.648Z,-1.70
2022-12-13T00:47:34.977Z,-1.70
2022-12-13T00:52:38.167Z,-1.60
2022-12-13T00:57:41.092Z,-1.60
2022-12-13T01:02:46.011Z,-1.50
2022-12-13T01:07:49.057Z,-1.40
2022-12-13T01:12:52.017Z,-1.40
2022-12-13T01:17:56.418Z,-1.30
2022-12-13T01:22:59.378Z,-1.20
2022-12-13T01:28:02.454Z,-1.10
2022-12-13T01:33:14.447Z,-1.00
2022-12-13T01:38:18.624Z,-1.00
2022-12-13T01:43:21.651Z,-1.00
2022-12-13T01:48:28.618Z,-1.00
2022-12-13T01:53:34.848Z,-0.90
2022-12-13T01:58:38.963Z,-0.90
2022-12-13T02:03:43.930Z,-0.90
2022-12-13T02:08:47.783Z,-0.80
2022-12-13T02:13:50.761Z,-0.80
2022-12-13T02:19:16.413Z,-0.70
2022-12-13T02:24:46.791Z,-0.70
2022-12-13T02:30:26.879Z,-0.60
2022-12-13T02:35:39.711Z,-0.60
2022-12-13T02:40:47.262Z,-0.60
2022-12-13T02:45:54.442Z,-0.60
2022-12-13T02:50:59.761Z,-0.60
2022-12-13T02:56:02.827Z,-0.60
2022-12-13T03:01:27.655Z,-0.60
2022-12-13T03:06:41.059Z,-0.60
2022-12-13T03:12:14.505Z,-0.60
2022-12-13T03:17:21.611Z,-0.70
2022-12-13T03:22:24.780Z,-0.70
2022-12-13T03:27:28.281Z,-0.70
2022-12-13T03:39:24.157Z,-0.70
2022-12-13T03:44:31.395Z,-0.60
2022-12-13T03:49:35.789Z,-0.60
2022-12-13T03:54:40.214Z,-0.60
2022-12-13T03:59:48.346Z,-0.60
2022-12-13T04:04:51.357Z,-0.70
2022-12-13T04:09:55.844Z,-0.70
2022-12-13T04:14:58.753Z,-0.70
2022-12-13T04:20:01.686Z,-0.70
2022-12-13T04:25:06.788Z,-0.80
2022-12-13T04:30:10.834Z,-0.70
2022-12-13T04:35:14.095Z,-0.70
2022-12-13T04:40:21.864Z,-0.70
2022-12-13T04:45:25.486Z,-0.80
2022-12-13T04:50:28.838Z,-0.90
2022-12-13T04:55:33.155Z,-0.90
2022-12-13T05:00:36.305Z,-1.00
2022-12-13T05:05:40.563Z,-1.00
2022-12-13T05:10:44.988Z,-1.00
2022-12-13T05:15:52.170Z,-1.00
2022-12-13T05:20:58.324Z,-1.00
2022-12-13T05:26:02.888Z,-1.00
2022-12-13T05:37:34.851Z,-1.10
2022-12-13T05:42:39.942Z,-1.30
2022-12-13T05:47:42.952Z,-1.30
2022-12-13T05:52:46.550Z,-1.30
2022-12-13T05:57:51.318Z,-1.30
2022-12-13T06:02:54.886Z,-1.40
2022-12-13T06:07:59.037Z,-1.40
2022-12-13T06:13:21.150Z,-1.40
2022-12-13T06:18:26.703Z,-1.40
2022-12-13T06:23:31.759Z,-1.40
2022-12-13T06:28:36.707Z,-1.30
2022-12-13T06:33:40.031Z,-1.40
2022-12-13T06:38:43.513Z,-1.40
2022-12-13T06:43:49.301Z,-1.50
2022-12-13T06:48:53.161Z,-1.60
2022-12-13T06:53:56.403Z,-1.70
2022-12-13T06:59:05.182Z,-1.60
2022-12-13T07:04:29.957Z,-1.60
2022-12-13T07:09:32.548Z,-1.50
2022-12-13T07:14:40.623Z,-1.50
2022-12-13T07:19:45.120Z,-1.50
2022-12-13T07:24:48.508Z,-1.50
2022-12-13T07:29:52.813Z,-1.60
2022-12-13T07:34:56.035Z,-1.70
2022-12-13T07:40:04.051Z,-1.80
2022-12-13T07:45:10.608Z,-1.90
2022-12-13T07:50:24.816Z,-1.90
2022-12-13T07:55:33.407Z,-2.10
2022-12-13T08:00:40.981Z,-2.10
2022-12-13T08:05:49.478Z,-2.20
2022-12-13T08:11:03.175Z,-2.30
2022-12-13T08:16:26.404Z,-2.30
2022-12-13T08:27:00.979Z,-2.30
2022-12-13T08:32:09.184Z,-2.30
2022-12-13T08:37:12.433Z,-2.30
2022-12-13T08:42:19.208Z,-2.10
2022-12-13T08:47:26.951Z,-2.00
2022-12-13T08:52:30.470Z,-1.80
2022-12-13T08:57:36.516Z,-1.60
2022-12-13T09:02:40.991Z,-1.50
2022-12-13T09:07:44.143Z,-1.30
2022-12-13T09:12:47.971Z,-1.20
2022-12-13T09:17:52.988Z,-1.10
2022-12-13T09:23:01.638Z,-1.00
2022-12-13T09:28:07.635Z,-0.90
2022-12-13T09:33:28.151Z,-0.80
2022-12-13T09:38:33.440Z,-0.80
2022-12-13T09:43:43.196Z,-0.70
2022-12-13T09:48:48.917Z,-0.70
2022-12-13T09:53:54.053Z,-0.70
2022-12-13T09:58:58.716Z,-0.70
2022-12-13T10:04:03.027Z,-0.70
2022-12-13T10:09:09.430Z,-0.70
2022-12-13T10:14:18.109Z,-0.60
2022-12-13T10:19:30.068Z,-0.60
2022-12-13T10:24:50.776Z,-0.60
2022-12-13T10:30:06.719Z,-0.60
2022-12-13T10:35:29.048Z,-0.60
2022-12-13T10:40:34.176Z,-0.60
2022-12-13T10:45:37.544Z,-0.50
2022-12-13T10:50:42.103Z,-0.50
2022-12-13T10:55:45.471Z,-0.40
2022-12-13T11:00:49.375Z,-0.30
2022-12-13T11:06:04.524Z,-0.30
2022-12-13T11:11:09.245Z,-0.20
2022-12-13T11:16:23.958Z,-0.10
2022-12-13T11:21:30.961Z,0.00
2022-12-13T11:26:37.395Z,0.10
2022-12-13T11:31:49.841Z,0.10
2022-12-13T11:37:02.519Z,0.20
2022-12-13T11:42:11.961Z,0.30
2022-12-13T11:47:20.805Z,0.40
2022-12-13T11:52:31.098Z,0.50
2022-12-13T11:57:44.030Z,0.50
2022-12-13T12:02:52.077Z,0.60
2022-12-13T12:08:43.625Z,0.70
2022-12-13T12:13:29.577Z,0.70
2022-12-13T12:18:33.236Z,0.70
2022-12-13T12:23:54.689Z,0.80
2022-12-13T12:29:19.793Z,0.80
2022-12-13T12:34:36.232Z,0.80
2022-12-13T12:39:57.758Z,0.70
2022-12-13T12:45:26.999Z,0.80
2022-12-13T12:50:43.338Z,0.80
2022-12-13T12:55:55.419Z,0.80
2022-12-13T13:01:14.714Z,0.80
2022-12-13T13:06:22.177Z,0.90
2022-12-13T13:11:28.990Z,1.00
2022-12-13T13:16:35.541Z,1.00
2022-12-13T13:21:48.606Z,0.90
2022-12-13T13:26:55.276Z,0.90
2022-12-13T13:32:02.178Z,0.80
2022-12-13T13:37:29.978Z,0.90
2022-12-13T13:42:34.488Z,0.80
2022-12-13T13:47:42.826Z,0.80
2022-12-13T13:53:00.626Z,0.80
2022-12-13T13:58:49.754Z,0.80
2022-12-13T14:04:14.079Z,0.90
2022-12-13T14:09:39.024Z,0.90
2022-12-13T14:15:17.629Z,0.90
2022-12-13T14:20:45.461Z,0.90
2022-12-13T14:26:18.953Z,0.90
2022-12-13T14:31:26.245Z,0.90
2022-12-13T14:36:32.312Z,0.90
2022-12-13T14:41:45.858Z,0.90
2022-12-13T14:46:56.276Z,0.90
2022-12-13T14:52:04.093Z,0.90
2022-12-13T14:57:07.158Z,0.90
2022-12-13T15:02:31.211Z,0.90
2022-12-13T15:07:38.058Z,0.80
2022-12-13T15:12:43.331Z,0.70
2022-12-13T15:17:47.712Z,0.70
2022-12-13T15:23:01.486Z,0.60
2022-12-13T15:28:07.883Z,0.50
2022-12-13T15:33:20.745Z,0.40
2022-12-13T15:38:28.513Z,0.30
2022-12-13T15:43:37.303Z,0.20
2022-12-13T15:48:48.641Z,0.20
2022-12-13T15:54:05.191Z,0.20
2022-12-13T15:59:26.084Z,0.10
2022-12-13T16:04:32.978Z,0.00
2022-12-13T16:09:38.258Z,0.00
2022-12-13T16:14:48.798Z,0.00
2022-12-13T16:19:55.191Z,0.00
2022-12-13T16:24:59.493Z,0.00
2022-12-13T16:30:02.477Z,-0.10
2022-12-13T16:35:07.904Z,-0.10
2022-12-13T16:40:26.270Z,-0.20
2022-12-13T16:45:41.658Z,-0.30
2022-12-13T16:50:48.253Z,-0.30
2022-12-13T16:56:00.974Z,-0.30
2022-12-13T17:01:09.686Z,-0.30
2022-12-13T17:06:17.749Z,-0.40
2022-12-13T17:11:20.725Z,-0.40
2022-12-13T17:16:23.755Z,-0.50
2022-12-13T17:21:29.671Z,-0.50
2022-12-13T17:26:32.790Z,-0.50
2022-12-13T17:31:36.455Z,-0.50
2022-12-13T17:36:40.856Z,-0.60
2022-12-13T17:41:43.831Z,-0.60
2022-12-13T17:46:57.907Z,-0.60
2022-12-13T17:52:02.877Z,-0.60
2022-12-13T17:57:06.032Z,-0.60
2022-12-13T18:02:13.505Z,-0.70
2022-12-13T18:07:17.936Z,-0.70
2022-12-13T18:12:20.925Z,-0.70
2022-12-13T18:17:46.669Z,-0.70
2022-12-13T18:22:51.521Z,-0.70
2022-12-13T18:28:00.839Z,-0.70
2022-12-13T18:33:05.505Z,-0.70
2022-12-13T18:38:10.503Z,-0.70
2022-12-13T18:43:13.511Z,-0.70
2022-12-13T18:48:17.327Z,-0.80
2022-12-13T18:53:23.316Z,-0.80
2022-12-13T18:58:26.751Z,-0.80
2022-12-13T19:03:30.201Z,-0.70
2022-12-13T19:08:36.499Z,-0.70
2022-12-13T19:13:39.630Z,-0.70
2022-12-13T19:18:42.605Z,-0.70
2022-12-13T19:23:54.909Z,-0.70
2022-12-13T19:29:02.073Z,-0.60
2022-12-13T19:34:05.360Z,-0.70
2022-12-13T19:39:12.303Z,-0.70
2022-12-13T19:44:15.291Z,-0.70
2022-12-13T19:49:21.030Z,-0.90
2022-12-13T19:54:26.591Z,-0.90
2022-12-13T19:59:29.557Z,-1.00
2022-12-13T20:04:33.028Z,-1.00
2022-12-13T20:09:39.738Z,-1.00
2022-12-13T20:14:43.125Z,-1.00
2022-12-13T20:19:46.026Z,-1.00
2022-12-13T20:24:50.361Z,-1.00
2022-12-13T20:29:53.483Z,-1.00
2022-12-13T20:34:56.655Z,-0.90
2022-12-13T20:40:01.276Z,-1.00
2022-12-13T20:45:04.477Z,-0.90
2022-12-13T20:50:09.067Z,-0.90
2022-12-13T20:55:13.794Z,-0.90
2022-12-13T21:00:18.457Z,-0.90
2022-12-13T21:05:21.449Z,-0.90
2022-12-13T21:10:25.779Z,-0.90
2022-12-13T21:15:28.711Z,-0.90
2022-12-13T21:20:31.807Z,-0.90
2022-12-13T21:25:36.202Z,-0.90
2022-12-13T21:30:39.118Z,-0.90
2022-12-13T21:35:42.104Z,-0.90
2022-12-13T21:40:48.009Z,-0.90
2022-12-13T21:45:51.191Z,-0.90
2022-12-13T21:50:54.155Z,-0.90
2022-12-13T21:56:12.612Z,-0.80
2022-12-13T22:01:15.649Z,-0.80
2022-12-13T22:06:18.670Z,-0.70
2022-12-13T22:11:23.006Z,-0.70
2022-12-13T22:16:26.806Z,-0.70
2022-12-13T22:21:29.939Z,-0.70
2022-12-13T22:26:34.239Z,-0.80
2022-12-13T22:31:37.199Z,-0.80
2022-12-13T22:36:40.196Z,-0.80
2022-12-13T22:41:45.877Z,-0.90
2022-12-13T22:46:48.999Z,-0.90
2022-12-13T22:51:51.933Z,-0.90
2022-12-13T22:56:56.278Z,-0.90
2022-12-13T23:02:02.587Z,-0.90
2022-12-13T23:07:08.466Z,-0.90
2022-12-13T23:12:31.047Z,-0.90
2022-12-13T23:17:34.372Z,-0.90
2022-12-13T23:22:37.623Z,-0.90
2022-12-13T23:27:41.936Z,-0.90
2022-12-13T23:32:53.825Z,-0.90
2022-12-13T23:37:56.872Z,-0.90
2022-12-13T23:43:01.206Z,-1.00
2022-12-13T23:48:04.266Z,-1.10
2022-12-13T23:53:07.223Z,-1.10
2022-12-13T23:58:11.608Z,-1.20
